This is the latest recevied weather packets stored in our database for station/object KA7KDX-4. If no packets are shown the sender has not sent any weather packets the latest 10 day(s).
| Time | Temp. | Humidity | Pressure | Rain* | Wind** | Luminosity | Snow |
|---|---|---|---|---|---|---|---|
| 1777486805 | 13.89° C | 42% | 1015.8 hPa | 0 mm | - | - | - |
| 1777486506 | 13.89° C | 42% | 1015.8 hPa | 0 mm | - | - | - |
| 1777486206 | 13.89° C | 41% | 1015.7 hPa | 0 mm | - | - | - |
| 1777485906 | 13.89° C | 40% | 1015.8 hPa | 0 mm | - | - | - |
| 1777485606 | 13.89° C | 40% | 1015.7 hPa | 0 mm | - | - | - |
| 1777485306 | 14.44° C | 41% | 1015.4 hPa | 0 mm | - | - | - |
| 1777485006 | 14.44° C | 35% | 1015.4 hPa | 0 mm | - | - | - |
| 1777484705 | 14.44° C | 33% | 1015.5 hPa | 0 mm | - | - | - |
| 1777484405 | 14.44° C | 32% | 1015.4 hPa | 0 mm | - | - | - |
| 1777484106 | 14.44° C | 32% | 1015.4 hPa | 0 mm | - | - | - |
| 1777483805 | 15° C | 34% | 1015.3 hPa | 0 mm | - | - | - |
| 1777483506 | 15° C | 33% | 1015.4 hPa | 0 mm | - | - | - |
| 1777483206 | 14.44° C | 32% | 1015.6 hPa | 0 mm | - | - | - |
| 1777482906 | 14.44° C | 34% | 1015.7 hPa | 0 mm | - | - | - |
| 1777482606 | 14.44° C | 32% | 1015.7 hPa | 0 mm | - | - | - |
| 1777482306 | 13.89° C | 34% | 1015.9 hPa | 0 mm | - | - | - |
| 1777482005 | 13.89° C | 35% | 1016 hPa | 0 mm | - | - | - |
| 1777481705 | 13.89° C | 38% | 1016.1 hPa | 0 mm | - | - | - |
| 1777481405 | 13.33° C | 39% | 1016.3 hPa | 0 mm | - | - | - |
| 1777481105 | 13.33° C | 41% | 1016.4 hPa | 0 mm | - | - | - |
| 1777480805 | 13.33° C | 42% | 1016.5 hPa | 0 mm | - | - | - |
| 1777480506 | 12.78° C | 44% | 1016.6 hPa | 0 mm | - | - | - |
| 1777480206 | 12.78° C | 44% | 1016.8 hPa | 0 mm | - | - | - |
| 1777479906 | 12.22° C | 44% | 1017 hPa | 0 mm | - | - | - |
| 1777479606 | 12.22° C | 46% | 1017.1 hPa | 0 mm | - | - | - |
* Rain latest hour (hover to see other rain measurements)
** Current wind speed in m/s (hover to see current wind gust speed)